Time;durP1;ratioP1;P1;durP2;ratioP2;P2;SDS_P1;SDS_P2;PMS_P1;PMS_P2;Temp;Humidity;BMP_temperature;BMP_pressure;BME280_temperature;BME280_humidity;BME280_pressure;Samples;Min_cycle;Max_cycle;Signal;HPM_P1;HPM_P2
2023/08/24 00:01:01;;;;;;;;;;;;;;;15.60;89.56;99200.88;4984037;28;20070;-81
2023/08/24 00:03:27;;;;;;;0.20;0.20;;;;;;;15.64;88.74;99203.81;4988247;28;19926;-81
2023/08/24 00:05:53;;;;;;;0.20;0.20;;;;;;;15.66;88.23;99205.13;4987261;28;20049;-81
2023/08/24 00:08:19;;;;;;;0.35;0.20;;;;;;;15.64;87.78;99203.81;4986151;28;20038;-81
2023/08/24 00:10:46;;;;;;;0.20;0.20;;;;;;;15.59;87.60;99207.53;4991254;28;20117;-81
2023/08/24 00:13:13;;;;;;;0.20;0.20;;;;;;;15.56;87.39;99210.94;4985252;28;20046;-81
2023/08/24 00:15:41;;;;;;;0.20;0.20;;;;;;;15.51;87.19;99213.84;4986169;28;20085;-80
2023/08/24 00:18:07;;;;;;;0.13;0.13;;;;;;;15.42;87.34;99208.34;4985345;28;20050;-81
2023/08/24 00:20:34;;;;;;;0.20;0.20;;;;;;;15.44;87.82;99222.59;4987028;28;20521;-80
2023/08/24 00:23:00;;;;;;;0.20;0.20;;;;;;;15.42;87.98;99228.41;4991079;28;20073;-80
2023/08/24 00:25:27;;;;;;;0.20;0.20;;;;;;;15.40;88.25;99227.13;4997118;28;20047;-81
2023/08/24 00:27:53;;;;;;;0.10;0.10;;;;;;;15.40;88.34;99227.94;4985975;28;20047;-81
2023/08/24 00:30:19;;;;;;;0.20;0.20;;;;;;;15.43;87.82;99226.47;4964985;28;20051;-80
2023/08/24 00:32:47;;;;;;;0.20;0.20;;;;;;;15.40;87.56;99232.63;4968925;28;20085;-80
2023/08/24 00:35:13;;;;;;;0.20;0.20;;;;;;;15.39;87.53;99234.56;4990512;28;20532;-80
2023/08/24 00:37:40;;;;;;;0.20;0.20;;;;;;;15.36;87.50;99232.47;4985894;28;20133;-81
2023/08/24 00:40:10;;;;;;;0.20;0.20;;;;;;;15.35;87.66;99238.28;4980309;28;20108;-72
2023/08/24 00:42:39;;;;;;;0.20;0.20;;;;;;;15.27;88.07;99235.19;4985963;28;20058;-80
2023/08/24 00:45:07;;;;;;;0.20;0.20;;;;;;;15.30;88.06;99234.56;4991166;28;20047;-80
2023/08/24 00:47:34;;;;;;;0.20;0.20;;;;;;;15.29;88.22;99238.44;4983376;28;20536;-78
2023/08/24 00:50:03;;;;;;;0.15;0.15;;;;;;;15.29;88.12;99237.63;4994061;28;20049;-80
2023/08/24 00:52:31;;;;;;;0.20;0.20;;;;;;;15.28;88.67;99236.00;4981670;28;20046;-80
2023/08/24 00:54:59;;;;;;;0.20;0.20;;;;;;;15.31;89.13;99238.94;4983355;28;20046;-80
2023/08/24 00:57:25;;;;;;;;;;;;;;;15.34;88.66;99240.25;4984797;28;20054;-80
2023/08/24 00:59:52;;;;;;;0.15;0.15;;;;;;;15.31;88.49;99236.16;4987128;28;19925;-79
2023/08/24 01:02:18;;;;;;;0.20;0.20;;;;;;;15.31;87.99;99238.13;4993315;28;20062;-80
2023/08/24 01:04:46;;;;;;;0.20;0.20;;;;;;;15.29;87.67;99238.44;4987834;28;20133;-80
2023/08/24 01:07:15;;;;;;;0.20;0.20;;;;;;;15.29;88.01;99235.69;4993081;28;20065;-80
2023/08/24 01:09:42;;;;;;;0.10;0.10;;;;;;;15.30;87.32;99234.56;4986243;28;20145;-80
2023/08/24 01:12:19;;;;;;;0.20;0.20;;;;;;;15.37;87.31;99233.25;4989444;28;20584;-81
2023/08/24 01:14:56;;;;;;;0.20;0.20;;;;;;;15.39;87.03;99234.56;4987301;28;20050;-80
2023/08/24 01:17:27;;;;;;;0.10;0.10;;;;;;;15.45;87.15;99229.72;4986701;28;20050;-81
2023/08/24 01:19:54;;;;;;;0.20;0.20;;;;;;;15.43;86.80;99234.75;4989844;28;20137;-79
2023/08/24 01:22:31;;;;;;;;;;;;;;;15.46;87.13;99231.34;4986584;28;20062;-80
2023/08/24 01:25:07;;;;;;;0.10;0.10;;;;;;;15.45;86.56;99225.03;4984911;28;19926;-79
2023/08/24 01:27:36;;;;;;;0.20;0.20;;;;;;;15.47;86.26;99232.16;4987310;28;20536;-79
2023/08/24 01:30:04;;;;;;;0.15;0.15;;;;;;;15.45;86.46;99230.53;4990761;28;20377;-74
2023/08/24 01:32:32;;;;;;;0.20;0.20;;;;;;;15.47;86.88;99229.41;4987457;28;20057;-74
2023/08/24 01:34:59;;;;;;;0.20;0.20;;;;;;;15.43;87.12;99224.53;4989978;28;20050;-74
2023/08/24 01:37:27;;;;;;;0.20;0.20;;;;;;;15.39;87.69;99226.31;4987116;28;20607;-73
2023/08/24 01:40:08;;;;;;;0.20;0.20;;;;;;;15.42;87.88;99231.16;4988220;28;20408;-74
2023/08/24 01:42:52;;;;;;;0.20;0.20;;;;;;;15.44;87.23;99245.41;4984476;28;20522;-80
2023/08/24 01:45:19;;;;;;;0.20;0.20;;;;;;;15.41;86.66;99237.81;4984435;28;20062;-80
2023/08/24 01:47:45;;;;;;;;;;;;;;;15.46;86.21;99245.13;4983279;28;20050;-80
2023/08/24 01:50:13;;;;;;;0.10;0.10;;;;;;;15.46;86.19;99234.09;4985115;28;19925;-80
2023/08/24 01:52:40;;;;;;;0.20;0.20;;;;;;;15.46;86.10;99236.84;4986563;28;20050;-80
2023/08/24 01:55:07;;;;;;;0.15;0.15;;;;;;;15.44;85.75;99228.91;5000394;28;20049;-79
2023/08/24 01:57:33;;;;;;;0.20;0.20;;;;;;;15.41;86.01;99224.03;4986294;28;20043;-73
2023/08/24 02:00:00;;;;;;;0.20;0.20;;;;;;;15.37;85.94;99231.31;4981871;28;20064;-73
2023/08/24 02:02:27;;;;;;;0.20;0.20;;;;;;;15.34;86.00;99229.22;4960109;28;20053;-71
2023/08/24 02:04:53;;;;;;;0.20;0.20;;;;;;;15.34;85.88;99237.47;4982588;28;20058;-73
2023/08/24 02:07:19;;;;;;;0.20;0.20;;;;;;;15.34;86.29;99231.97;4968124;28;20445;-73
2023/08/24 02:09:46;;;;;;;0.20;0.20;;;;;;;15.38;86.20;99237.66;4999531;28;20721;-73
2023/08/24 02:12:12;;;;;;;0.20;0.20;;;;;;;15.38;86.23;99229.41;4986302;28;20735;-74
2023/08/24 02:14:39;;;;;;;0.20;0.20;;;;;;;15.43;85.84;99235.53;4983098;28;20046;-73
2023/08/24 02:17:27;;;;;;;0.20;0.20;;;;;;;15.47;85.21;99232.97;4953329;28;20117;-73
2023/08/24 02:19:55;;;;;;;0.15;0.15;;;;;;;15.51;84.99;99233.13;4996717;28;20145;-74
2023/08/24 02:22:21;;;;;;;0.20;0.20;;;;;;;15.50;84.74;99224.03;4990742;28;20505;-74
2023/08/24 02:24:47;;;;;;;0.20;0.20;;;;;;;15.51;84.95;99224.88;4988309;28;20105;-73
2023/08/24 02:27:13;;;;;;;0.20;0.20;;;;;;;15.52;84.95;99230.03;4982278;28;20053;-73
2023/08/24 02:29:40;;;;;;;0.20;0.20;;;;;;;15.55;84.20;99231.34;4984667;28;20560;-72
2023/08/24 02:32:06;;;;;;;0.20;0.20;;;;;;;15.55;83.95;99234.09;4968942;28;20054;-74
2023/08/24 02:34:34;;;;;;;0.20;0.20;;;;;;;15.59;84.03;99240.59;4986584;28;20252;-73
2023/08/24 02:36:59;;;;;;;;;;;;;;;15.59;84.23;99237.84;4993956;28;20041;-73
2023/08/24 02:39:25;;;;;;;0.20;0.20;;;;;;;15.59;84.35;99235.06;4988675;28;19972;-73
2023/08/24 02:41:52;;;;;;;0.20;0.20;;;;;;;15.59;84.01;99233.16;4997944;28;20050;-72
2023/08/24 02:44:18;;;;;;;0.20;0.20;;;;;;;15.64;83.83;99237.69;4973675;28;20473;-73
2023/08/24 02:46:45;;;;;;;0.20;0.20;;;;;;;15.62;83.91;99236.38;4987085;28;20528;-73
2023/08/24 02:49:11;;;;;;;0.20;0.20;;;;;;;15.64;83.30;99236.88;4986026;28;20531;-73
2023/08/24 02:51:39;;;;;;;0.20;0.20;;;;;;;15.59;83.36;99241.41;4969266;28;20484;-73
2023/08/24 02:54:05;;;;;;;0.20;0.20;;;;;;;15.59;83.57;99238.66;4993109;28;20048;-73
2023/08/24 02:56:31;;;;;;;0.20;0.20;;;;;;;15.63;83.75;99246.28;4982973;28;20050;-74
2023/08/24 02:58:57;;;;;;;0.20;0.20;;;;;;;15.63;83.52;99238.84;4983484;28;20069;-72
2023/08/24 03:01:24;;;;;;;0.20;0.20;;;;;;;15.57;83.78;99240.09;4983789;28;20140;-73
2023/08/24 03:03:50;;;;;;;0.20;0.20;;;;;;;15.53;83.66;99239.13;4985318;28;20046;-73
2023/08/24 03:06:16;;;;;;;0.20;0.20;;;;;;;15.53;83.29;99244.63;4968296;28;20057;-72
2023/08/24 03:08:44;;;;;;;0.20;0.20;;;;;;;15.49;83.69;99251.94;4987823;28;20040;-73
2023/08/24 03:11:11;;;;;;;0.20;0.20;;;;;;;15.50;84.23;99253.56;4986160;28;20064;-74
2023/08/24 03:13:38;;;;;;;0.20;0.20;;;;;;;15.49;83.99;99249.97;4967269;28;20050;-73
2023/08/24 03:16:05;;;;;;;0.20;0.20;;;;;;;15.49;83.93;99249.97;4982996;28;20141;-73
2023/08/24 03:18:32;;;;;;;0.20;0.20;;;;;;;15.46;84.66;99258.88;4990799;28;20424;-73
2023/08/24 03:20:58;;;;;;;0.20;0.20;;;;;;;15.44;84.74;99247.38;4970788;28;20536;-80
2023/08/24 03:23:24;;;;;;;0.20;0.20;;;;;;;15.53;84.58;99258.41;4985593;28;20046;-73
2023/08/24 03:25:52;;;;;;;0.20;0.20;;;;;;;15.56;84.50;99255.84;4970815;28;20057;-74
2023/08/24 03:28:18;;;;;;;0.20;0.20;;;;;;;15.60;84.39;99253.22;4989002;28;20054;-74
2023/08/24 03:30:50;;;;;;;0.20;0.20;;;;;;;15.62;84.73;99255.69;4988930;28;20058;-74
2023/08/24 03:33:16;;;;;;;0.20;0.20;;;;;;;15.68;84.82;99254.38;4971319;28;20097;-75
2023/08/24 03:35:43;;;;;;;0.20;0.20;;;;;;;15.71;84.06;99249.03;4988101;28;20062;-73
2023/08/24 03:38:09;;;;;;;0.30;0.30;;;;;;;15.76;84.30;99252.75;4989543;28;20089;-73
2023/08/24 03:40:36;;;;;;;0.20;0.20;;;;;;;15.79;83.84;99263.16;4995346;28;20057;-73
2023/08/24 03:43:03;;;;;;;0.20;0.20;;;;;;;15.77;84.21;99260.72;4968764;28;20078;-73
2023/08/24 03:45:30;;;;;;;0.22;0.22;;;;;;;15.75;84.18;99263.00;4985204;28;20895;-74
2023/08/24 03:47:56;;;;;;;0.20;0.20;;;;;;;15.79;84.21;99263.97;4989802;28;20038;-73
2023/08/24 03:50:22;;;;;;;0.20;0.20;;;;;;;15.78;83.86;99272.56;4985870;28;20050;-73
2023/08/24 03:52:49;;;;;;;0.20;0.20;;;;;;;15.80;83.23;99271.09;4986032;28;20042;-73
2023/08/24 03:55:16;;;;;;;0.20;0.20;;;;;;;15.80;83.35;99270.28;4991037;28;20056;-73
2023/08/24 03:57:43;;;;;;;0.20;0.20;;;;;;;15.74;83.73;99267.69;4959687;28;20070;-74
2023/08/24 04:00:14;;;;;;;0.20;0.20;;;;;;;15.64;84.17;99256.16;4966300;28;20047;-74
2023/08/24 04:02:42;;;;;;;0.20;0.20;;;;;;;15.58;84.35;99267.34;4979573;28;20046;-73
2023/08/24 04:05:11;;;;;;;0.20;0.20;;;;;;;15.47;84.84;99266.00;4984871;28;20082;-74
2023/08/24 04:07:39;;;;;;;0.20;0.20;;;;;;;15.48;85.06;99270.41;4985023;28;20088;-73
2023/08/24 04:10:07;;;;;;;0.20;0.20;;;;;;;15.50;84.88;99275.59;4990804;28;20045;-74
2023/08/24 04:12:33;;;;;;;0.20;0.20;;;;;;;15.50;84.56;99270.09;4987692;28;20054;-74
2023/08/24 04:14:59;;;;;;;0.20;0.20;;;;;;;15.48;85.17;99273.16;4985792;28;20146;-73
2023/08/24 04:17:27;;;;;;;0.20;0.20;;;;;;;15.48;84.71;99278.66;4985390;28;20392;-74
2023/08/24 04:19:53;;;;;;;0.20;0.20;;;;;;;15.55;84.36;99276.25;4971274;28;20049;-73
2023/08/24 04:22:20;;;;;;;0.20;0.20;;;;;;;15.60;84.28;99284.38;4983809;28;20549;-73
2023/08/24 04:24:46;;;;;;;0.20;0.20;;;;;;;15.54;84.33;99282.06;4964773;28;20187;-74
2023/08/24 04:27:12;;;;;;;0.22;0.22;;;;;;;15.60;84.36;99281.59;4980477;28;20058;-74
2023/08/24 04:29:38;;;;;;;0.20;0.20;;;;;;;15.71;84.21;99289.56;4976852;28;20049;-73
2023/08/24 04:32:05;;;;;;;0.20;0.20;;;;;;;15.72;83.23;99285.69;4994497;28;20527;-73
2023/08/24 04:34:33;;;;;;;0.20;0.20;;;;;;;15.78;82.80;99286.34;4975585;28;20110;-73
2023/08/24 04:36:59;;;;;;;0.20;0.20;;;;;;;15.82;83.08;99301.91;4988125;28;20050;-73
2023/08/24 04:39:25;;;;;;;0.28;0.28;;;;;;;15.88;83.01;99294.28;4991058;28;20104;-73
2023/08/24 04:41:51;;;;;;;0.20;0.20;;;;;;;15.91;82.56;99290.91;4986545;28;20081;-73
2023/08/24 04:44:17;;;;;;;0.20;0.20;;;;;;;15.86;82.89;99291.88;4987458;28;20034;-74
2023/08/24 04:46:43;;;;;;;0.30;0.30;;;;;;;15.92;83.33;99289.81;4984552;28;20046;-80
2023/08/24 04:49:13;;;;;;;0.20;0.20;;;;;;;16.02;82.89;99296.94;4986333;28;20509;-80
2023/08/24 04:51:41;;;;;;;0.20;0.20;;;;;;;16.08;82.71;99283.78;4983985;28;20153;-80
2023/08/24 04:54:07;;;;;;;0.20;0.20;;;;;;;16.18;81.61;99288.19;4986963;28;20061;-81
2023/08/24 04:56:34;;;;;;;0.20;0.20;;;;;;;16.25;81.11;99288.47;4986859;28;20047;-80
2023/08/24 04:59:01;;;;;;;0.20;0.20;;;;;;;16.21;80.92;99288.31;4988293;28;20050;-80
2023/08/24 05:01:27;;;;;;;;;;;;;;;16.15;81.46;99289.63;4972726;28;20080;-80
2023/08/24 05:03:54;;;;;;;0.20;0.20;;;;;;;16.17;81.01;99287.34;4991969;28;19925;-80
2023/08/24 05:06:21;;;;;;;0.20;0.20;;;;;;;16.23;81.16;99293.53;4985008;28;20124;-74
2023/08/24 05:08:49;;;;;;;0.30;0.30;;;;;;;16.26;81.18;99290.09;4988482;28;20137;-80
2023/08/24 05:11:18;;;;;;;0.20;0.20;;;;;;;16.31;80.59;99292.69;4983659;28;20043;-80
2023/08/24 05:13:44;;;;;;;0.20;0.20;;;;;;;16.24;80.77;99292.38;4985848;28;20118;-80
2023/08/24 05:16:11;;;;;;;0.20;0.20;;;;;;;16.19;80.98;99292.56;4984752;28;20078;-80
2023/08/24 05:18:37;;;;;;;0.20;0.20;;;;;;;16.07;80.92;99294.00;5001852;28;20061;-80
2023/08/24 05:21:04;;;;;;;0.20;0.20;;;;;;;15.99;81.31;99297.56;4984337;28;20304;-74
2023/08/24 05:23:35;;;;;;;0.20;0.20;;;;;;;15.93;81.81;99290.59;4986404;28;20046;-80
2023/08/24 05:26:09;;;;;;;0.20;0.20;;;;;;;15.90;81.93;99285.72;4966744;28;20100;-79
2023/08/24 05:28:42;;;;;;;0.22;0.22;;;;;;;15.80;81.83;99284.06;4965636;28;20140;-73
2023/08/24 05:31:10;;;;;;;0.20;0.20;;;;;;;15.83;83.03;99300.75;4965447;28;20058;-80
2023/08/24 05:33:36;;;;;;;0.20;0.20;;;;;;;15.81;82.62;99286.50;4981906;28;20046;-80
2023/08/24 05:36:03;;;;;;;0.20;0.20;;;;;;;15.79;82.72;99299.00;4957938;28;20057;-81
2023/08/24 05:38:30;;;;;;;0.20;0.20;;;;;;;15.72;82.76;99299.47;4984405;28;20421;-81
2023/08/24 05:40:56;;;;;;;0.20;0.20;;;;;;;15.68;83.48;99302.03;4990147;28;20555;-79
2023/08/24 05:43:23;;;;;;;0.20;0.20;;;;;;;15.76;82.76;99300.44;4988571;28;20077;-80
2023/08/24 05:45:50;;;;;;;0.20;0.20;;;;;;;15.73;83.00;99299.13;4995851;28;20042;-80
2023/08/24 05:48:16;;;;;;;0.20;0.20;;;;;;;15.76;82.53;99302.38;4963579;28;20046;-80
2023/08/24 05:50:43;;;;;;;0.20;0.20;;;;;;;15.72;82.56;99294.75;4980386;28;20509;-80
2023/08/24 05:53:12;;;;;;;0.20;0.20;;;;;;;15.68;82.39;99299.28;4976153;28;20529;-81
2023/08/24 05:55:39;;;;;;;0.20;0.20;;;;;;;15.74;82.18;99297.19;4985175;28;20058;-80
2023/08/24 05:58:05;;;;;;;0.20;0.20;;;;;;;15.79;82.05;99301.75;4985304;28;20042;-80
2023/08/24 06:00:33;;;;;;;0.20;0.20;;;;;;;15.80;81.55;99303.38;4987938;28;20034;-79
2023/08/24 06:02:59;;;;;;;0.20;0.20;;;;;;;15.88;80.89;99308.91;4988555;28;20080;-80
2023/08/24 06:05:26;;;;;;;0.20;0.20;;;;;;;15.93;80.53;99301.63;4953488;28;20403;-73
2023/08/24 06:07:53;;;;;;;0.20;0.20;;;;;;;15.88;80.24;99308.91;4974009;28;20039;-73
2023/08/24 06:10:19;;;;;;;0.20;0.20;;;;;;;15.91;80.87;99312.16;4960004;28;20038;-73
2023/08/24 06:12:45;;;;;;;0.30;0.30;;;;;;;15.94;80.64;99303.25;4973791;28;20050;-73
2023/08/24 06:15:13;;;;;;;0.30;0.30;;;;;;;16.05;79.89;99312.00;4972373;28;20061;-73
2023/08/24 06:17:47;;;;;;;0.20;0.20;;;;;;;16.12;79.99;99324.16;4957006;28;20046;-73
2023/08/24 06:20:13;;;;;;;0.20;0.20;;;;;;;16.11;79.24;99322.53;4974126;28;20112;-73
2023/08/24 06:22:40;;;;;;;0.20;0.20;;;;;;;16.02;79.15;99314.28;4974733;28;20406;-73
2023/08/24 06:25:08;;;;;;;0.20;0.20;;;;;;;16.13;78.72;99320.28;4987979;28;20526;-74
2023/08/24 06:27:34;;;;;;;;;;;;;;;16.03;78.93;99323.38;4991908;28;20062;-73
2023/08/24 06:30:00;;;;;;;0.20;0.20;;;;;;;15.95;79.13;99336.00;4991470;28;19925;-73
2023/08/24 06:32:27;;;;;;;0.20;0.20;;;;;;;15.89;79.45;99331.78;4992318;28;20057;-82
2023/08/24 06:34:55;;;;;;;0.20;0.20;;;;;;;15.84;79.60;99337.41;4975948;28;20046;-80
2023/08/24 06:37:21;;;;;;;0.30;0.30;;;;;;;15.70;79.36;99337.56;4988816;28;20050;-73
2023/08/24 06:39:48;;;;;;;0.20;0.20;;;;;;;15.54;79.67;99331.66;4980955;28;20108;-74
2023/08/24 06:42:14;;;;;;;0.30;0.30;;;;;;;15.41;79.85;99352.69;4989169;28;20550;-73
2023/08/24 06:44:40;;;;;;;0.20;0.20;;;;;;;15.28;80.68;99344.22;4992574;28;20077;-73
2023/08/24 06:47:06;;;;;;;0.20;0.20;;;;;;;15.29;81.17;99350.53;4994244;28;20388;-73
2023/08/24 06:49:33;;;;;;;0.20;0.20;;;;;;;15.26;81.08;99348.41;4994007;28;20054;-73
2023/08/24 06:52:03;;;;;;;0.30;0.30;;;;;;;15.14;80.80;99354.53;4993193;28;20123;-73
2023/08/24 06:54:29;;;;;;;0.20;0.20;;;;;;;15.05;81.33;99353.66;4978441;28;20061;-80
2023/08/24 06:56:55;;;;;;;0.20;0.20;;;;;;;15.06;82.05;99361.59;4994525;28;20050;-80
2023/08/24 06:59:22;;;;;;;0.20;0.20;;;;;;;15.05;81.80;99364.66;4993142;28;20050;-79
2023/08/24 07:01:48;;;;;;;0.20;0.20;;;;;;;15.00;81.51;99365.63;4998970;28;20134;-73
2023/08/24 07:04:14;;;;;;;0.20;0.20;;;;;;;14.97;82.31;99358.81;4997635;28;20156;-73
2023/08/24 07:06:42;;;;;;;0.22;0.22;;;;;;;15.02;82.20;99364.16;4994029;28;20057;-79
2023/08/24 07:09:12;;;;;;;0.20;0.20;;;;;;;15.03;82.48;99370.50;4982661;28;20428;-79
2023/08/24 07:11:38;;;;;;;0.20;0.20;;;;;;;15.02;82.20;99361.41;4975796;28;20104;-79
2023/08/24 07:14:05;;;;;;;0.20;0.20;;;;;;;14.97;82.52;99372.56;4996124;28;20241;-79
2023/08/24 07:16:31;;;;;;;0.20;0.20;;;;;;;14.95;82.53;99369.31;4999650;28;20061;-79
2023/08/24 07:18:58;;;;;;;0.20;0.20;;;;;;;14.92;82.69;99366.38;5005496;28;20234;-79
2023/08/24 07:21:25;;;;;;;0.20;0.20;;;;;;;14.96;82.84;99368.19;4991944;28;20431;-79
2023/08/24 07:23:51;;;;;;;;;;;;;;;14.92;83.00;99371.88;4990548;28;20053;-79
2023/08/24 07:26:18;;;;;;;0.20;0.20;;;;;;;14.91;83.20;99371.09;4986533;28;19926;-79
2023/08/24 07:28:45;;;;;;;0.20;0.20;;;;;;;14.98;82.81;99373.38;4977825;28;20042;-79
2023/08/24 07:31:12;;;;;;;0.20;0.20;;;;;;;14.96;82.34;99372.88;4994247;28;20576;-79
2023/08/24 07:33:39;;;;;;;0.20;0.20;;;;;;;14.92;82.26;99367.22;4990787;28;20049;-79
2023/08/24 07:36:05;;;;;;;0.20;0.20;;;;;;;14.97;81.65;99374.50;4982308;28;20572;-80
2023/08/24 07:38:33;;;;;;;0.20;0.20;;;;;;;15.03;81.61;99376.00;4986617;28;20059;-79
2023/08/24 07:40:59;;;;;;;0.20;0.20;;;;;;;15.03;81.63;99385.06;4992202;28;20057;-78
2023/08/24 07:43:27;;;;;;;0.20;0.20;;;;;;;15.03;81.25;99378.75;4987735;28;20080;-78
2023/08/24 07:45:54;;;;;;;0.20;0.20;;;;;;;15.11;80.86;99385.44;4990280;28;20065;-79
2023/08/24 07:48:20;;;;;;;0.20;0.20;;;;;;;15.19;80.74;99381.91;4993342;28;20064;-78
2023/08/24 07:50:47;;;;;;;0.20;0.20;;;;;;;15.20;81.09;99377.22;4987685;28;20061;-78
2023/08/24 07:53:14;;;;;;;0.20;0.20;;;;;;;15.20;80.63;99385.50;4989158;28;20050;-78
2023/08/24 07:55:40;;;;;;;0.20;0.20;;;;;;;15.17;80.76;99386.91;4988095;28;20046;-78
2023/08/24 07:58:06;;;;;;;0.20;0.20;;;;;;;15.12;80.82;99385.09;4989014;28;20141;-79
2023/08/24 08:00:34;;;;;;;0.30;0.30;;;;;;;15.05;80.82;99382.00;4993254;28;20296;-79
2023/08/24 08:03:00;;;;;;;0.20;0.20;;;;;;;15.05;80.51;99387.50;4992474;28;20491;-79
2023/08/24 08:05:27;;;;;;;0.20;0.20;;;;;;;15.17;80.65;99398.75;5006977;28;20148;-79
2023/08/24 08:07:53;;;;;;;0.20;0.20;;;;;;;15.30;80.17;99397.03;4991713;28;20073;-79
2023/08/24 08:10:21;;;;;;;0.20;0.20;;;;;;;15.42;79.47;99388.16;4996632;28;20058;-79
2023/08/24 08:12:47;;;;;;;0.20;0.20;;;;;;;15.50;78.75;99389.34;5008393;28;20082;-81
2023/08/24 08:15:14;;;;;;;0.20;0.20;;;;;;;15.65;78.94;99390.88;4991580;28;20046;-80
2023/08/24 08:17:42;;;;;;;0.20;0.20;;;;;;;15.83;78.09;99391.72;4996706;28;20525;-79
2023/08/24 08:20:08;;;;;;;0.30;0.30;;;;;;;16.00;77.47;99388.22;4989787;28;20042;-79
2023/08/24 08:22:38;;;;;;;0.20;0.20;;;;;;;16.21;76.23;99397.84;4984062;28;20425;-79
2023/08/24 08:25:05;;;;;;;0.30;0.30;;;;;;;16.26;75.62;99395.75;4988551;28;20517;-79
2023/08/24 08:27:33;;;;;;;0.20;0.20;;;;;;;16.24;75.49;99391.66;4991475;28;20459;-79
2023/08/24 08:29:59;;;;;;;0.30;0.30;;;;;;;16.09;75.10;99395.72;4999027;28;20928;-79
2023/08/24 08:32:27;;;;;;;0.20;0.20;;;;;;;16.00;76.23;99388.22;5007911;28;20111;-79
2023/08/24 08:34:56;;;;;;;0.20;0.20;;;;;;;15.98;76.02;99389.69;4981742;28;20052;-80
2023/08/24 08:37:22;;;;;;;0.20;0.20;;;;;;;15.97;75.64;99390.81;4995320;28;20046;-79
2023/08/24 08:39:49;;;;;;;0.20;0.20;;;;;;;15.99;75.17;99389.38;4994039;28;20038;-80
2023/08/24 08:42:15;;;;;;;0.20;0.20;;;;;;;15.98;74.83;99395.19;4981607;28;20120;-79
2023/08/24 08:44:45;;;;;;;0.20;0.20;;;;;;;15.98;74.97;99395.19;4989149;28;20034;-79
2023/08/24 08:47:12;;;;;;;0.20;0.20;;;;;;;15.97;74.73;99396.31;4988548;28;20043;-81
2023/08/24 08:49:39;;;;;;;0.20;0.20;;;;;;;15.88;75.27;99394.34;4971799;28;20050;-79
2023/08/24 08:52:07;;;;;;;0.20;0.20;;;;;;;15.81;75.46;99393.19;4987755;28;20046;-79
2023/08/24 08:54:33;;;;;;;0.20;0.20;;;;;;;15.79;75.51;99395.47;4986390;28;20506;-73
2023/08/24 08:57:00;;;;;;;0.20;0.20;;;;;;;15.83;74.97;99396.44;4996833;28;20596;-73
2023/08/24 08:59:31;;;;;;;0.20;0.20;;;;;;;15.87;75.50;99402.91;4997247;28;20678;-73
2023/08/24 09:01:58;;;;;;;0.20;0.20;;;;;;;15.91;75.14;99398.41;4983886;28;20049;-78
2023/08/24 09:04:26;;;;;;;0.20;0.20;;;;;;;15.93;74.89;99404.44;4988928;28;20061;-78
2023/08/24 09:06:52;;;;;;;0.20;0.20;;;;;;;16.08;74.68;99403.16;4989413;28;20043;-77
2023/08/24 09:09:21;;;;;;;0.20;0.20;;;;;;;16.21;74.60;99403.34;4987528;28;20083;-78
2023/08/24 09:11:48;;;;;;;0.20;0.20;;;;;;;16.25;73.40;99402.41;4983456;28;20050;-78
2023/08/24 09:14:14;;;;;;;0.20;0.20;;;;;;;16.09;74.19;99401.22;4984642;28;20081;-78
2023/08/24 09:16:42;;;;;;;0.30;0.30;;;;;;;16.11;74.04;99407.25;4990202;28;20141;-77
2023/08/24 09:19:11;;;;;;;0.20;0.20;;;;;;;16.09;72.94;99401.22;4986090;28;20141;-73
2023/08/24 09:21:39;;;;;;;0.20;0.20;;;;;;;16.13;73.72;99408.53;4987826;28;20064;-73
2023/08/24 09:24:06;;;;;;;0.20;0.20;;;;;;;16.31;73.02;99408.53;5007959;28;20583;-73
2023/08/24 09:26:36;;;;;;;0.20;0.20;;;;;;;16.49;72.64;99409.38;4961340;28;20038;-73
2023/08/24 09:29:13;;;;;;;0.28;0.28;;;;;;;16.59;71.66;99409.06;4966014;28;20075;-74
2023/08/24 09:31:40;;;;;;;0.20;0.20;;;;;;;16.58;71.21;99414.88;4986551;28;20069;-73
2023/08/24 09:34:07;;;;;;;0.20;0.20;;;;;;;16.53;71.24;99415.06;5006609;28;20075;-74
2023/08/24 09:36:34;;;;;;;0.30;0.30;;;;;;;16.45;70.90;99400.94;4993234;28;20082;-73
2023/08/24 09:39:00;;;;;;;0.30;0.30;;;;;;;16.43;71.56;99413.44;4975881;28;20147;-73
2023/08/24 09:41:39;;;;;;;0.30;0.30;;;;;;;16.34;71.62;99412.59;4974277;28;20046;-74
2023/08/24 09:44:05;;;;;;;0.20;0.20;;;;;;;16.26;72.39;99408.72;4998000;28;20100;-74
2023/08/24 09:46:31;;;;;;;0.20;0.20;;;;;;;16.16;72.91;99413.41;4988059;28;20057;-73
2023/08/24 09:49:00;;;;;;;0.20;0.20;;;;;;;16.09;73.31;99421.34;4984039;28;20073;-74
2023/08/24 09:51:27;;;;;;;0.20;0.20;;;;;;;16.11;73.62;99415.50;4989253;28;20515;-73
2023/08/24 09:53:56;;;;;;;;;;;;;;;16.23;73.64;99421.19;4980096;28;20149;-73
2023/08/24 09:56:25;;;;;;;0.22;0.22;;;;;;;16.19;72.68;99416.66;4987781;28;20384;-73
2023/08/24 09:58:55;;;;;;;0.20;0.20;;;;;;;16.10;72.68;99416.66;4983108;28;20047;-73
2023/08/24 10:01:23;;;;;;;0.20;0.20;;;;;;;16.06;72.54;99421.16;4999043;28;20061;-74
2023/08/24 10:03:57;;;;;;;0.30;0.30;;;;;;;16.12;73.03;99423.44;4986156;28;20137;-71
2023/08/24 10:06:29;;;;;;;0.30;0.30;;;;;;;16.23;72.44;99421.19;4974303;28;20050;-73
2023/08/24 10:09:04;;;;;;;0.30;0.30;;;;;;;16.53;71.42;99415.06;4995865;28;20054;-73
2023/08/24 10:11:33;;;;;;;0.30;0.30;;;;;;;16.87;70.17;99421.69;4987183;28;20049;-72
2023/08/24 10:14:07;;;;;;;0.30;0.30;;;;;;;17.33;68.88;99419.38;4969939;28;20108;-77
2023/08/24 10:16:36;;;;;;;0.30;0.30;;;;;;;17.59;67.46;99418.47;4991121;28;20050;-73
2023/08/24 10:19:04;;;;;;;0.38;0.30;;;;;;;17.76;66.01;99411.22;4985274;28;20115;-73
2023/08/24 10:21:30;;;;;;;0.20;0.20;;;;;;;17.68;65.54;99410.13;4988038;28;20149;-76
2023/08/24 10:23:57;;;;;;;0.20;0.20;;;;;;;17.67;65.37;99419.56;4997328;28;20165;-77
2023/08/24 10:26:24;;;;;;;0.30;0.30;;;;;;;17.61;65.18;99420.91;4985924;28;20047;-77
2023/08/24 10:29:26;;;;;;;0.30;0.30;;;;;;;17.61;64.11;99412.59;4982969;28;20128;-77
2023/08/24 10:31:52;;;;;;;0.30;0.30;;;;;;;17.61;64.11;99420.91;4985286;28;20046;-77
2023/08/24 10:34:18;;;;;;;0.30;0.30;;;;;;;17.62;64.25;99417.78;4986422;28;20058;-78
2023/08/24 10:36:48;;;;;;;0.30;0.30;;;;;;;17.77;64.23;99423.91;4985430;28;20038;-78
2023/08/24 10:39:15;;;;;;;0.30;0.30;;;;;;;17.81;63.56;99413.81;4972365;28;20035;-78
2023/08/24 10:41:48;;;;;;;0.20;0.20;;;;;;;17.72;63.25;99414.66;4986866;28;20157;-79
2023/08/24 10:44:22;;;;;;;0.20;0.20;;;;;;;17.55;64.35;99415.53;4989357;28;20501;-78
2023/08/24 10:47:15;;;;;;;0.20;0.20;;;;;;;17.36;65.28;99418.72;4985754;28;20042;-78
2023/08/24 10:49:42;;;;;;;0.20;0.20;;;;;;;17.23;65.29;99419.72;4967253;28;20042;-77
2023/08/24 10:52:21;;;;;;;0.20;0.20;;;;;;;17.09;66.24;99420.72;4991154;28;20048;-78
2023/08/24 10:54:48;;;;;;;0.20;0.20;;;;;;;17.00;66.54;99417.97;4988328;28;20514;-79
2023/08/24 10:57:20;;;;;;;0.20;0.20;;;;;;;16.93;66.83;99420.38;4976061;28;20080;-77
2023/08/24 10:59:59;;;;;;;0.20;0.20;;;;;;;16.88;66.72;99420.56;4989215;28;20046;-78
2023/08/24 11:02:27;;;;;;;0.30;0.30;;;;;;;16.84;66.88;99425.91;4989254;28;20050;-78
2023/08/24 11:05:07;;;;;;;0.20;0.20;;;;;;;16.81;66.84;99418.28;4988451;28;20053;-79
2023/08/24 11:07:33;;;;;;;0.20;0.20;;;;;;;16.82;66.23;99428.19;4984948;28;20069;-78
2023/08/24 11:10:12;;;;;;;0.20;0.20;;;;;;;16.80;65.96;99421.41;4988673;28;20049;-78
2023/08/24 11:13:07;;;;;;;0.20;0.20;;;;;;;16.71;66.19;99426.94;4993676;28;20505;-78
2023/08/24 11:15:36;;;;;;;0.20;0.20;;;;;;;16.77;66.40;99428.38;4988289;28;20039;-78
2023/08/24 11:18:27;;;;;;;0.20;0.20;;;;;;;16.80;65.33;99419.44;4989319;28;20073;-77
2023/08/24 11:20:55;;;;;;;0.20;0.20;;;;;;;16.82;65.46;99416.34;5001711;28;20046;-77
2023/08/24 11:23:22;;;;;;;;;;;;;;;16.80;65.42;99426.91;4969412;28;20149;-78
2023/08/24 11:25:54;;;;;;;0.20;0.20;;;;;;;16.76;65.18;99417.66;4978552;28;19925;-73
2023/08/24 11:28:21;;;;;;;0.20;0.20;;;;;;;16.82;65.75;99421.88;4988618;28;20509;-74
2023/08/24 11:30:48;;;;;;;0.20;0.20;;;;;;;16.86;65.42;99414.56;4985465;28;20053;-74
2023/08/24 11:33:17;;;;;;;0.20;0.20;;;;;;;16.93;65.87;99433.38;4991392;28;20065;-74
2023/08/24 11:35:44;;;;;;;0.20;0.20;;;;;;;16.92;65.73;99423.50;4989942;28;20385;-74
2023/08/24 11:38:11;;;;;;;0.30;0.30;;;;;;;16.90;65.83;99423.00;4987994;28;20117;-73
2023/08/24 11:40:38;;;;;;;0.20;0.20;;;;;;;16.97;65.85;99429.66;4993261;28;20462;-78